sensor_id;sensor_type;location;lat;lon;timestamp;pressure;altitude;pressure_sealevel;temperature;humidity
55301;BME280;58302;51.446;-2.000;2022-09-01T00:01:26;101376.13;;;13.14;88.42
55301;BME280;58302;51.446;-2.000;2022-09-01T00:03:53;101376.91;;;13.09;89.10
55301;BME280;58302;51.446;-2.000;2022-09-01T00:06:23;101371.09;;;13.01;89.61
55301;BME280;58302;51.446;-2.000;2022-09-01T00:08:50;101369.13;;;12.96;89.98
55301;BME280;58302;51.446;-2.000;2022-09-01T00:11:18;101367.75;;;12.93;90.26
55301;BME280;58302;51.446;-2.000;2022-09-01T00:13:44;101364.66;;;12.85;90.60
55301;BME280;58302;51.446;-2.000;2022-09-01T00:16:10;101360.81;;;12.81;91.27
55301;BME280;58302;51.446;-2.000;2022-09-01T00:18:40;101352.06;;;12.79;91.65
55301;BME280;58302;51.446;-2.000;2022-09-01T00:21:10;101359.75;;;12.82;92.33
55301;BME280;58302;51.446;-2.000;2022-09-01T00:23:36;101364.59;;;12.80;92.35
55301;BME280;58302;51.446;-2.000;2022-09-01T00:26:04;101359.38;;;12.73;92.49
55301;BME280;58302;51.446;-2.000;2022-09-01T00:28:32;101357.47;;;12.74;92.56
55301;BME280;58302;51.446;-2.000;2022-09-01T00:30:58;101354.44;;;12.70;92.90
55301;BME280;58302;51.446;-2.000;2022-09-01T00:33:26;101353.91;;;12.73;93.48
55301;BME280;58302;51.446;-2.000;2022-09-01T00:35:52;101350.34;;;12.73;93.67
55301;BME280;58302;51.446;-2.000;2022-09-01T00:38:18;101349.53;;;12.72;93.76
55301;BME280;58302;51.446;-2.000;2022-09-01T00:40:44;101349.47;;;12.67;94.05
55301;BME280;58302;51.446;-2.000;2022-09-01T00:43:22;101345.94;;;12.66;94.33
55301;BME280;58302;51.446;-2.000;2022-09-01T00:45:48;101349.47;;;12.67;94.65
55301;BME280;58302;51.446;-2.000;2022-09-01T00:48:19;101344.56;;;12.64;94.88
55301;BME280;58302;51.446;-2.000;2022-09-01T00:50:46;101339.34;;;12.62;95.09
55301;BME280;58302;51.446;-2.000;2022-09-01T00:53:12;101333.13;;;12.67;94.92
55301;BME280;58302;51.446;-2.000;2022-09-01T00:55:38;101332.31;;;12.66;95.12
55301;BME280;58302;51.446;-2.000;2022-09-01T00:58:06;101332.63;;;12.70;95.26
55301;BME280;58302;51.446;-2.000;2022-09-01T01:00:35;101330.13;;;12.69;94.97
55301;BME280;58302;51.446;-2.000;2022-09-01T01:03:10;101316.75;;;12.67;95.10
55301;BME280;58302;51.446;-2.000;2022-09-01T01:05:39;101323.84;;;12.68;95.16
55301;BME280;58302;51.446;-2.000;2022-09-01T01:08:09;101323.84;;;12.68;95.26
55301;BME280;58302;51.446;-2.000;2022-09-01T01:10:39;101318.13;;;12.64;95.41
55301;BME280;58302;51.446;-2.000;2022-09-01T01:13:08;101317.53;;;12.62;95.76
55301;BME280;58302;51.446;-2.000;2022-09-01T01:15:35;101318.94;;;12.65;95.76
55301;BME280;58302;51.446;-2.000;2022-09-01T01:18:01;101311.84;;;12.64;95.63
55301;BME280;58302;51.446;-2.000;2022-09-01T01:20:28;101316.75;;;12.67;95.20
55301;BME280;58302;51.446;-2.000;2022-09-01T01:23:23;101316.81;;;12.72;94.98
55301;BME280;58302;51.446;-2.000;2022-09-01T01:25:59;101308.84;;;12.65;95.47
55301;BME280;58302;51.446;-2.000;2022-09-01T01:28:27;101303.66;;;12.64;95.59
55301;BME280;58302;51.446;-2.000;2022-09-01T01:31:08;101303.06;;;12.62;95.91
55301;BME280;58302;51.446;-2.000;2022-09-01T01:33:46;101308.25;;;12.58;96.06
55301;BME280;58302;51.446;-2.000;2022-09-01T01:36:17;101303.59;;;12.59;96.11
55301;BME280;58302;51.446;-2.000;2022-09-01T01:38:47;101299.78;;;12.60;96.74
55301;BME280;58302;51.446;-2.000;2022-09-01T01:41:16;101296.47;;;12.58;96.52
55301;BME280;58302;51.446;-2.000;2022-09-01T01:43:44;101292.66;;;12.54;96.55
55301;BME280;58302;51.446;-2.000;2022-09-01T01:46:11;101289.38;;;12.57;96.95
55301;BME280;58302;51.446;-2.000;2022-09-01T01:48:41;101288.56;;;12.56;96.98
55301;BME280;58302;51.446;-2.000;2022-09-01T01:51:08;101292.09;;;12.57;97.03
55301;BME280;58302;51.446;-2.000;2022-09-01T01:53:37;101290.47;;;12.56;97.38
55301;BME280;58302;51.446;-2.000;2022-09-01T01:56:03;101278.75;;;12.55;96.87
55301;BME280;58302;51.446;-2.000;2022-09-01T01:58:32;101292.38;;;12.55;97.08
55301;BME280;58302;51.446;-2.000;2022-09-01T02:00:58;101278.47;;;12.57;96.91
55301;BME280;58302;51.446;-2.000;2022-09-01T02:03:31;101285.28;;;12.54;97.14
55301;BME280;58302;51.446;-2.000;2022-09-01T02:06:05;101292.66;;;12.54;97.45
55301;BME280;58302;51.446;-2.000;2022-09-01T02:08:35;101290.16;;;12.52;97.21
55301;BME280;58302;51.446;-2.000;2022-09-01T02:11:03;101294.56;;;12.53;97.43
55301;BME280;58302;51.446;-2.000;2022-09-01T02:13:30;101281.97;;;12.52;97.36
55301;BME280;58302;51.446;-2.000;2022-09-01T02:16:07;101283.31;;;12.50;97.49
55301;BME280;58302;51.446;-2.000;2022-09-01T02:18:41;101277.06;;;12.49;97.69
55301;BME280;58302;51.446;-2.000;2022-09-01T02:21:09;101278.97;;;12.49;97.71
55301;BME280;58302;51.446;-2.000;2022-09-01T02:23:37;101280.88;;;12.48;97.95
55301;BME280;58302;51.446;-2.000;2022-09-01T02:26:04;101274.59;;;12.48;97.75
55301;BME280;58302;51.446;-2.000;2022-09-01T02:28:33;101269.97;;;12.48;97.54
55301;BME280;58302;51.446;-2.000;2022-09-01T02:31:02;101272.09;;;12.46;97.82
55301;BME280;58302;51.446;-2.000;2022-09-01T02:33:31;101267.47;;;12.47;98.03
55301;BME280;58302;51.446;-2.000;2022-09-01T02:36:00;101269.97;;;12.48;97.81
55301;BME280;58302;51.446;-2.000;2022-09-01T02:38:27;101262.00;;;12.47;98.06
55301;BME280;58302;51.446;-2.000;2022-09-01T02:41:02;101266.41;;;12.48;97.96
55301;BME280;58302;51.446;-2.000;2022-09-01T02:43:30;101258.53;;;12.51;98.02
55301;BME280;58302;51.446;-2.000;2022-09-01T02:45:58;101264.28;;;12.55;97.53
55301;BME280;58302;51.446;-2.000;2022-09-01T02:48:30;101266.47;;;12.58;97.46
55301;BME280;58302;51.446;-2.000;2022-09-01T02:50:59;101258.88;;;12.60;97.50
55301;BME280;58302;51.446;-2.000;2022-09-01T02:53:28;101264.91;;;12.62;97.20
55301;BME280;58302;51.446;-2.000;2022-09-01T02:55:54;101248.56;;;12.67;97.02
55301;BME280;58302;51.446;-2.000;2022-09-01T02:58:25;101252.38;;;12.66;97.08
55301;BME280;58302;51.446;-2.000;2022-09-01T03:00:53;101250.22;;;12.68;96.65
55301;BME280;58302;51.446;-2.000;2022-09-01T03:03:20;101251.91;;;12.74;96.59
55301;BME280;58302;51.446;-2.000;2022-09-01T03:05:47;101249.53;;;12.83;96.46
55301;BME280;58302;51.446;-2.000;2022-09-01T03:08:16;101246.84;;;12.88;95.64
55301;BME280;58302;51.446;-2.000;2022-09-01T03:10:43;101248.00;;;12.97;94.89
55301;BME280;58302;51.446;-2.000;2022-09-01T03:13:13;101249.44;;;13.05;94.71
55301;BME280;58302;51.446;-2.000;2022-09-01T03:15:39;101245.09;;;13.09;94.23
55301;BME280;58302;51.446;-2.000;2022-09-01T03:18:07;101242.66;;;13.12;94.15
55301;BME280;58302;51.446;-2.000;2022-09-01T03:20:35;101240.22;;;13.16;93.84
55301;BME280;58302;51.446;-2.000;2022-09-01T03:23:04;101238.03;;;13.18;94.03
55301;BME280;58302;51.446;-2.000;2022-09-01T03:25:33;101231.00;;;13.22;93.34
55301;BME280;58302;51.446;-2.000;2022-09-01T03:28:01;101226.69;;;13.26;93.00
55301;BME280;58302;51.446;-2.000;2022-09-01T03:30:30;101223.13;;;13.26;92.93
55301;BME280;58302;51.446;-2.000;2022-09-01T03:32:57;101224.78;;;13.32;92.83
55301;BME280;58302;51.446;-2.000;2022-09-01T03:35:25;101219.06;;;13.33;92.70
55301;BME280;58302;51.446;-2.000;2022-09-01T03:37:54;101212.78;;;13.33;92.46
55301;BME280;58302;51.446;-2.000;2022-09-01T03:40:28;101214.69;;;13.32;92.69
55301;BME280;58302;51.446;-2.000;2022-09-01T03:43:01;101210.88;;;13.33;92.72
55301;BME280;58302;51.446;-2.000;2022-09-01T03:45:28;101215.25;;;13.34;92.43
55301;BME280;58302;51.446;-2.000;2022-09-01T03:47:55;101210.34;;;13.36;92.29
55301;BME280;58302;51.446;-2.000;2022-09-01T03:50:23;101198.06;;;13.39;92.02
55301;BME280;58302;51.446;-2.000;2022-09-01T03:52:52;101196.97;;;13.40;92.01
55301;BME280;58302;51.446;-2.000;2022-09-01T03:55:23;101187.69;;;13.36;91.96
55301;BME280;58302;51.446;-2.000;2022-09-01T03:57:52;101195.03;;;13.30;91.98
55301;BME280;58302;51.446;-2.000;2022-09-01T04:00:21;101186.53;;;13.27;92.85
55301;BME280;58302;51.446;-2.000;2022-09-01T04:02:50;101189.25;;;13.22;92.92
55301;BME280;58302;51.446;-2.000;2022-09-01T04:05:18;101178.56;;;13.20;93.22
55301;BME280;58302;51.446;-2.000;2022-09-01T04:07:46;101175.03;;;13.19;93.13
55301;BME280;58302;51.446;-2.000;2022-09-01T04:10:13;101184.53;;;13.17;93.29
55301;BME280;58302;51.446;-2.000;2022-09-01T04:12:44;101178.31;;;13.22;93.34
55301;BME280;58302;51.446;-2.000;2022-09-01T04:15:13;101169.88;;;13.23;93.31
55301;BME280;58302;51.446;-2.000;2022-09-01T04:17:40;101168.25;;;13.27;93.01
55301;BME280;58302;51.446;-2.000;2022-09-01T04:20:24;101168.81;;;13.29;93.24
55301;BME280;58302;51.446;-2.000;2022-09-01T04:22:50;101162.28;;;13.30;93.18
55301;BME280;58302;51.446;-2.000;2022-09-01T04:25:18;101163.63;;;13.33;93.21
55301;BME280;58302;51.446;-2.000;2022-09-01T04:27:52;101162.31;;;13.35;93.25
55301;BME280;58302;51.446;-2.000;2022-09-01T04:30:21;101159.84;;;13.39;92.75
55301;BME280;58302;51.446;-2.000;2022-09-01T04:32:50;101160.94;;;13.38;93.22
55301;BME280;58302;51.446;-2.000;2022-09-01T04:35:16;101153.56;;;13.38;93.28
55301;BME280;58302;51.446;-2.000;2022-09-01T04:37:45;101157.69;;;13.41;93.07
55301;BME280;58302;51.446;-2.000;2022-09-01T04:40:12;101149.22;;;13.42;93.04
55301;BME280;58302;51.446;-2.000;2022-09-01T04:42:39;101157.13;;;13.44;93.10
55301;BME280;58302;51.446;-2.000;2022-09-01T04:45:07;101151.41;;;13.45;93.33
55301;BME280;58302;51.446;-2.000;2022-09-01T04:47:35;101146.50;;;13.48;93.11
55301;BME280;58302;51.446;-2.000;2022-09-01T04:50:08;101158.25;;;13.48;93.14
55301;BME280;58302;51.446;-2.000;2022-09-01T04:52:45;101154.69;;;13.48;93.55
55301;BME280;58302;51.446;-2.000;2022-09-01T04:55:13;101147.84;;;13.45;93.45
55301;BME280;58302;51.446;-2.000;2022-09-01T04:57:47;101138.31;;;13.42;93.61
55301;BME280;58302;51.446;-2.000;2022-09-01T05:00:16;101144.31;;;13.50;93.64
55301;BME280;58302;51.446;-2.000;2022-09-01T05:03:00;101144.31;;;13.50;93.47
55301;BME280;58302;51.446;-2.000;2022-09-01T05:05:47;101139.97;;;13.49;93.64
55301;BME280;58302;51.446;-2.000;2022-09-01T05:08:16;101152.50;;;13.50;93.59
55301;BME280;58302;51.446;-2.000;2022-09-01T05:10:45;101147.06;;;13.50;93.61
55301;BME280;58302;51.446;-2.000;2022-09-01T05:13:14;101144.31;;;13.50;93.67
55301;BME280;58302;51.446;-2.000;2022-09-01T05:15:43;101143.78;;;13.48;94.13
55301;BME280;58302;51.446;-2.000;2022-09-01T05:18:17;101142.97;;;13.47;93.84
55301;BME280;58302;51.446;-2.000;2022-09-01T05:20:50;101134.47;;;13.43;94.16
55301;BME280;58302;51.446;-2.000;2022-09-01T05:23:17;101141.53;;;13.39;94.55
55301;BME280;58302;51.446;-2.000;2022-09-01T05:25:46;101142.63;;;13.38;94.61
55301;BME280;58302;51.446;-2.000;2022-09-01T05:28:18;101133.13;;;13.41;95.11
55301;BME280;58302;51.446;-2.000;2022-09-01T05:30:46;101127.38;;;13.42;95.09
55301;BME280;58302;51.446;-2.000;2022-09-01T05:33:14;101132.84;;;13.48;94.69
55301;BME280;58302;51.446;-2.000;2022-09-01T05:35:54;101138.84;;;13.50;94.46
55301;BME280;58302;51.446;-2.000;2022-09-01T05:38:21;101136.13;;;13.50;94.58
55301;BME280;58302;51.446;-2.000;2022-09-01T05:40:56;101133.41;;;13.55;94.49
55301;BME280;58302;51.446;-2.000;2022-09-01T05:43:23;101135.88;;;13.61;94.42
55301;BME280;58302;51.446;-2.000;2022-09-01T05:45:52;101136.72;;;13.67;94.13
55301;BME280;58302;51.446;-2.000;2022-09-01T05:48:19;101142.75;;;13.69;93.91
55301;BME280;58302;51.446;-2.000;2022-09-01T05:50:49;101135.66;;;13.73;93.95
55301;BME280;58302;51.446;-2.000;2022-09-01T05:53:17;101129.66;;;13.76;93.86
55301;BME280;58302;51.446;-2.000;2022-09-01T05:55:44;101137.06;;;13.81;93.61
55301;BME280;58302;51.446;-2.000;2022-09-01T05:58:16;101135.16;;;13.86;93.35
55301;BME280;58302;51.446;-2.000;2022-09-01T06:00:47;101132.44;;;13.91;93.02
55301;BME280;58302;51.446;-2.000;2022-09-01T06:03:14;101136.25;;;13.95;92.79
55301;BME280;58302;51.446;-2.000;2022-09-01T06:05:42;101129.97;;;14.00;92.81
55301;BME280;58302;51.446;-2.000;2022-09-01T06:08:13;101127.53;;;14.04;92.55
55301;BME280;58302;51.446;-2.000;2022-09-01T06:10:40;101129.44;;;14.08;92.66
55301;BME280;58302;51.446;-2.000;2022-09-01T06:13:08;101132.72;;;14.10;92.03
55301;BME280;58302;51.446;-2.000;2022-09-01T06:15:38;101137.09;;;14.16;92.00
55301;BME280;58302;51.446;-2.000;2022-09-01T06:18:10;101134.66;;;14.25;91.71
55301;BME280;58302;51.446;-2.000;2022-09-01T06:20:38;101135.75;;;14.29;91.12
55301;BME280;58302;51.446;-2.000;2022-09-01T06:23:05;101125.63;;;14.35;90.98
55301;BME280;58302;51.446;-2.000;2022-09-01T06:25:31;101129.44;;;14.44;90.78
55301;BME280;58302;51.446;-2.000;2022-09-01T06:28:01;101125.34;;;14.46;90.71
55301;BME280;58302;51.446;-2.000;2022-09-01T06:30:29;101123.16;;;14.59;90.19
55301;BME280;58302;51.446;-2.000;2022-09-01T06:32:57;101124.50;;;14.66;89.75
55301;BME280;58302;51.446;-2.000;2022-09-01T06:35:26;101114.94;;;14.74;89.56
55301;BME280;58302;51.446;-2.000;2022-09-01T06:37:55;101114.38;;;14.82;88.87
55301;BME280;58302;51.446;-2.000;2022-09-01T06:40:21;101123.13;;;14.89;88.59
55301;BME280;58302;51.446;-2.000;2022-09-01T06:42:51;101121.44;;;14.98;88.21
55301;BME280;58302;51.446;-2.000;2022-09-01T06:45:22;101118.16;;;15.01;88.16
55301;BME280;58302;51.446;-2.000;2022-09-01T06:47:50;101120.31;;;15.10;87.67
55301;BME280;58302;51.446;-2.000;2022-09-01T06:50:20;101119.75;;;15.18;87.27
55301;BME280;58302;51.446;-2.000;2022-09-01T06:52:49;101112.03;;;15.30;86.98
55301;BME280;58302;51.446;-2.000;2022-09-01T06:55:28;101113.63;;;15.36;86.58
55301;BME280;58302;51.446;-2.000;2022-09-01T06:57:58;101120.13;;;15.66;85.20
55301;BME280;58302;51.446;-2.000;2022-09-01T07:00:25;101114.81;;;15.79;84.63
55301;BME280;58302;51.446;-2.000;2022-09-01T07:02:55;101115.53;;;15.95;83.54
55301;BME280;58302;51.446;-2.000;2022-09-01T07:05:25;101122.31;;;16.03;83.04
55301;BME280;58302;51.446;-2.000;2022-09-01T07:07:53;101120.53;;;15.88;83.82
55301;BME280;58302;51.446;-2.000;2022-09-01T07:10:28;101119.47;;;15.79;84.25
55301;BME280;58302;51.446;-2.000;2022-09-01T07:12:57;101125.59;;;15.66;85.06
55301;BME280;58302;51.446;-2.000;2022-09-01T07:15:26;101122.28;;;15.69;85.36
55301;BME280;58302;51.446;-2.000;2022-09-01T07:17:56;101120.13;;;15.66;85.35
55301;BME280;58302;51.446;-2.000;2022-09-01T07:20:26;101126.63;;;15.75;85.33
55301;BME280;58302;51.446;-2.000;2022-09-01T07:22:55;101122.22;;;15.79;85.14
55301;BME280;58302;51.446;-2.000;2022-09-01T07:25:26;101130.38;;;15.89;84.46
55301;BME280;58302;51.446;-2.000;2022-09-01T07:27:53;101117.13;;;16.01;83.83
55301;BME280;58302;51.446;-2.000;2022-09-01T07:30:21;101122.78;;;16.15;83.61
55301;BME280;58302;51.446;-2.000;2022-09-01T07:32:49;101115.25;;;16.31;82.56
55301;BME280;58302;51.446;-2.000;2022-09-01T07:35:18;101129.44;;;16.43;81.97
55301;BME280;58302;51.446;-2.000;2022-09-01T07:37:46;101120.00;;;16.54;81.17
55301;BME280;58302;51.446;-2.000;2022-09-01T07:40:16;101123.59;;;16.50;81.24
55301;BME280;58302;51.446;-2.000;2022-09-01T07:42:47;101124.38;;;16.55;81.04
55301;BME280;58302;51.446;-2.000;2022-09-01T07:45:15;101119.66;;;16.61;80.73
55301;BME280;58302;51.446;-2.000;2022-09-01T07:47:42;101126.78;;;16.62;80.53
55301;BME280;58302;51.446;-2.000;2022-09-01T07:50:11;101115.91;;;16.81;80.00
55301;BME280;58302;51.446;-2.000;2022-09-01T07:52:42;101114.00;;;17.05;78.32
55301;BME280;58302;51.446;-2.000;2022-09-01T07:55:11;101109.97;;;17.22;77.91
55301;BME280;58302;51.446;-2.000;2022-09-01T07:57:42;101109.91;;;17.46;76.88
55301;BME280;58302;51.446;-2.000;2022-09-01T08:00:13;101108.91;;;17.60;76.26
55301;BME280;58302;51.446;-2.000;2022-09-01T08:02:42;101107.59;;;17.77;75.32
55301;BME280;58302;51.446;-2.000;2022-09-01T08:05:13;101112.47;;;17.80;74.59
55301;BME280;58302;51.446;-2.000;2022-09-01T08:07:40;101113.53;;;17.84;74.73
55301;BME280;58302;51.446;-2.000;2022-09-01T08:10:07;101114.13;;;18.00;74.11
55301;BME280;58302;51.446;-2.000;2022-09-01T08:12:33;101114.75;;;17.97;73.98
55301;BME280;58302;51.446;-2.000;2022-09-01T08:15:06;101117.69;;;18.00;73.55
55301;BME280;58302;51.446;-2.000;2022-09-01T08:17:33;101117.75;;;17.95;73.81
55301;BME280;58302;51.446;-2.000;2022-09-01T08:20:01;101121.06;;;17.97;73.74
55301;BME280;58302;51.446;-2.000;2022-09-01T08:22:27;101121.78;;;18.03;73.76
55301;BME280;58302;51.446;-2.000;2022-09-01T08:24:55;101114.34;;;18.03;73.36
55301;BME280;58302;51.446;-2.000;2022-09-01T08:27:22;101117.09;;;18.03;73.53
55301;BME280;58302;51.446;-2.000;2022-09-01T08:29:48;101113.75;;;18.06;73.32
55301;BME280;58302;51.446;-2.000;2022-09-01T08:32:15;101114.81;;;17.92;73.82
55301;BME280;58302;51.446;-2.000;2022-09-01T08:34:43;101115.69;;;18.06;73.68
55301;BME280;58302;51.446;-2.000;2022-09-01T08:37:10;101121.91;;;18.30;72.69
55301;BME280;58302;51.446;-2.000;2022-09-01T08:39:36;101114.88;;;18.38;71.84
55301;BME280;58302;51.446;-2.000;2022-09-01T08:44:57;101123.06;;;18.76;70.23
55301;BME280;58302;51.446;-2.000;2022-09-01T08:47:27;101121.84;;;18.82;69.71
55301;BME280;58302;51.446;-2.000;2022-09-01T08:49:53;101116.31;;;18.68;70.20
55301;BME280;58302;51.446;-2.000;2022-09-01T08:52:34;101120.63;;;18.74;70.34
55301;BME280;58302;51.446;-2.000;2022-09-01T08:57:37;101111.97;;;18.62;71.18
55301;BME280;58302;51.446;-2.000;2022-09-01T09:00:06;101113.00;;;18.52;71.02
55301;BME280;58302;51.446;-2.000;2022-09-01T09:03:05;101120.13;;;18.53;71.31
55301;BME280;58302;51.446;-2.000;2022-09-01T09:14:07;101106.44;;;19.36;67.98
55301;BME280;58302;51.446;-2.000;2022-09-01T09:16:42;101100.16;;;19.58;66.41
55301;BME280;58302;51.446;-2.000;2022-09-01T09:19:37;101101.03;;;19.81;65.12
55301;BME280;58302;51.446;-2.000;2022-09-01T09:22:08;101100.38;;;20.20;64.25
55301;BME280;58302;51.446;-2.000;2022-09-01T09:27:46;101097.97;;;21.20;59.88
55301;BME280;58302;51.446;-2.000;2022-09-01T09:30:25;101096.78;;;21.61;57.96
55301;BME280;58302;51.446;-2.000;2022-09-01T09:32:54;101095.97;;;21.87;57.42
55301;BME280;58302;51.446;-2.000;2022-09-01T09:35:28;101086.53;;;22.31;54.70
55301;BME280;58302;51.446;-2.000;2022-09-01T09:40:58;101085.69;;;22.48;53.95
55301;BME280;58302;51.446;-2.000;2022-09-01T09:43:26;101089.00;;;22.15;54.10
55301;BME280;58302;51.446;-2.000;2022-09-01T09:49:11;101084.19;;;22.50;53.20
55301;BME280;58302;51.446;-2.000;2022-09-01T09:51:41;101079.22;;;22.73;52.92
55301;BME280;58302;51.446;-2.000;2022-09-01T09:54:13;101074.91;;;22.55;52.52
55301;BME280;58302;51.446;-2.000;2022-09-01T09:56:42;101080.63;;;22.50;53.26
55301;BME280;58302;51.446;-2.000;2022-09-01T09:59:29;101079.69;;;22.84;52.92
55301;BME280;58302;51.446;-2.000;2022-09-01T10:01:57;101081.00;;;22.86;52.65
55301;BME280;58302;51.446;-2.000;2022-09-01T10:04:37;101068.59;;;22.93;52.08
55301;BME280;58302;51.446;-2.000;2022-09-01T10:07:29;101070.13;;;23.11;50.79
55301;BME280;58302;51.446;-2.000;2022-09-01T10:09:58;101072.34;;;22.97;51.21
55301;BME280;58302;51.446;-2.000;2022-09-01T10:12:25;101074.19;;;23.13;50.85
55301;BME280;58302;51.446;-2.000;2022-09-01T10:15:19;101068.97;;;23.12;50.19
55301;BME280;58302;51.446;-2.000;2022-09-01T10:17:46;101055.91;;;23.12;50.25
55301;BME280;58302;51.446;-2.000;2022-09-01T10:20:17;101063.19;;;23.26;49.82
55301;BME280;58302;51.446;-2.000;2022-09-01T10:22:46;101059.66;;;23.17;49.71
55301;BME280;58302;51.446;-2.000;2022-09-01T10:25:25;101057.41;;;23.10;50.25
55301;BME280;58302;51.446;-2.000;2022-09-01T10:28:01;101060.19;;;23.10;50.50
55301;BME280;58302;51.446;-2.000;2022-09-01T10:30:31;101056.25;;;23.11;49.67
55301;BME280;58302;51.446;-2.000;2022-09-01T10:32:59;101050.94;;;23.27;48.66
55301;BME280;58302;51.446;-2.000;2022-09-01T10:35:29;101054.78;;;23.34;47.96
55301;BME280;58302;51.446;-2.000;2022-09-01T10:38:07;101045.69;;;23.55;47.34
55301;BME280;58302;51.446;-2.000;2022-09-01T10:40:43;101047.88;;;23.70;46.91
55301;BME280;58302;51.446;-2.000;2022-09-01T10:43:22;101048.34;;;23.72;46.51
55301;BME280;58302;51.446;-2.000;2022-09-01T10:45:52;101037.97;;;23.81;46.05
55301;BME280;58302;51.446;-2.000;2022-09-01T10:48:22;101042.03;;;23.84;47.03
55301;BME280;58302;51.446;-2.000;2022-09-01T10:50:53;101042.91;;;23.55;46.49
55301;BME280;58302;51.446;-2.000;2022-09-01T11:04:23;101041.13;;;23.29;46.65
55301;BME280;58302;51.446;-2.000;2022-09-01T11:10:25;101040.22;;;23.67;45.22
55301;BME280;58302;51.446;-2.000;2022-09-01T11:13:23;101033.38;;;23.85;44.60
55301;BME280;58302;51.446;-2.000;2022-09-01T11:15:54;101044.34;;;24.15;43.76
55301;BME280;58302;51.446;-2.000;2022-09-01T11:18:26;101033.56;;;24.01;43.79
55301;BME280;58302;51.446;-2.000;2022-09-01T11:21:13;101042.47;;;24.07;44.45
55301;BME280;58302;51.446;-2.000;2022-09-01T11:23:43;101037.44;;;24.33;43.81
55301;BME280;58302;51.446;-2.000;2022-09-01T11:28:57;101037.97;;;24.14;43.43
55301;BME280;58302;51.446;-2.000;2022-09-01T11:31:43;101037.84;;;24.11;43.31
55301;BME280;58302;51.446;-2.000;2022-09-01T11:34:19;101028.13;;;24.17;42.83
55301;BME280;58302;51.446;-2.000;2022-09-01T11:36:58;101027.41;;;23.96;43.22
55301;BME280;58302;51.446;-2.000;2022-09-01T11:39:39;101016.44;;;23.78;43.01
55301;BME280;58302;51.446;-2.000;2022-09-01T11:45:29;101020.34;;;23.56;43.47
55301;BME280;58302;51.446;-2.000;2022-09-01T11:48:07;101012.19;;;23.39;43.57
55301;BME280;58302;51.446;-2.000;2022-09-01T11:50:36;101007.03;;;23.29;44.02
55301;BME280;58302;51.446;-2.000;2022-09-01T11:53:07;101007.22;;;23.24;43.66
55301;BME280;58302;51.446;-2.000;2022-09-01T11:55:46;101011.50;;;23.21;44.16
55301;BME280;58302;51.446;-2.000;2022-09-01T11:58:34;101008.97;;;23.07;44.27
55301;BME280;58302;51.446;-2.000;2022-09-01T12:01:16;100994.59;;;23.14;44.39
55301;BME280;58302;51.446;-2.000;2022-09-01T12:03:45;101010.06;;;23.15;43.85
55301;BME280;58302;51.446;-2.000;2022-09-01T12:06:22;100999.97;;;23.10;43.40
55301;BME280;58302;51.446;-2.000;2022-09-01T12:08:57;101001.34;;;23.04;43.14
55301;BME280;58302;51.446;-2.000;2022-09-01T12:11:31;101001.00;;;23.06;43.69
55301;BME280;58302;51.446;-2.000;2022-09-01T12:14:09;101003.56;;;22.81;44.11
55301;BME280;58302;51.446;-2.000;2022-09-01T12:16:42;100992.47;;;22.81;44.60
55301;BME280;58302;51.446;-2.000;2022-09-01T12:19:26;100985.78;;;22.82;44.03
55301;BME280;58302;51.446;-2.000;2022-09-01T12:22:14;100998.84;;;22.82;44.18
55301;BME280;58302;51.446;-2.000;2022-09-01T12:24:47;101003.56;;;22.81;44.06
55301;BME280;58302;51.446;-2.000;2022-09-01T12:27:15;100997.69;;;22.83;43.76
55301;BME280;58302;51.446;-2.000;2022-09-01T12:29:41;100995.72;;;22.83;43.72
55301;BME280;58302;51.446;-2.000;2022-09-01T12:32:08;100994.75;;;22.79;43.66
55301;BME280;58302;51.446;-2.000;2022-09-01T12:34:45;101003.25;;;22.74;43.70
55301;BME280;58302;51.446;-2.000;2022-09-01T12:39:45;100993.50;;;22.68;44.00
55301;BME280;58302;51.446;-2.000;2022-09-01T12:44:55;100987.88;;;22.85;44.45
55301;BME280;58302;51.446;-2.000;2022-09-01T12:52:45;100988.91;;;23.10;43.50
55301;BME280;58302;51.446;-2.000;2022-09-01T12:55:21;100997.56;;;23.09;43.73
55301;BME280;58302;51.446;-2.000;2022-09-01T12:57:50;100991.94;;;22.97;43.39
55301;BME280;58302;51.446;-2.000;2022-09-01T13:03:07;100997.50;;;22.50;44.23
55301;BME280;58302;51.446;-2.000;2022-09-01T13:05:43;100995.66;;;22.24;44.32
55301;BME280;58302;51.446;-2.000;2022-09-01T13:08:20;101003.38;;;21.84;45.47
55301;BME280;58302;51.446;-2.000;2022-09-01T13:11:10;101005.00;;;21.59;46.34
55301;BME280;58302;51.446;-2.000;2022-09-01T13:13:34;101001.91;;;21.52;46.70
55301;BME280;58302;51.446;-2.000;2022-09-01T13:16:02;101003.88;;;21.51;47.46
55301;BME280;58302;51.446;-2.000;2022-09-01T13:18:46;101007.13;;;21.36;48.68
55301;BME280;58302;51.446;-2.000;2022-09-01T13:21:12;101005.28;;;21.23;49.39
55301;BME280;58302;51.446;-2.000;2022-09-01T13:23:38;101006.41;;;21.13;50.14
55301;BME280;58302;51.446;-2.000;2022-09-01T13:26:05;101004.97;;;21.16;50.84
55301;BME280;58302;51.446;-2.000;2022-09-01T13:28:31;101005.78;;;21.25;51.28
55301;BME280;58302;51.446;-2.000;2022-09-01T13:31:01;101007.13;;;21.45;51.01
55301;BME280;58302;51.446;-2.000;2022-09-01T13:33:30;100997.69;;;21.46;51.42
55301;BME280;58302;51.446;-2.000;2022-09-01T13:35:58;100994.75;;;21.34;51.96
55301;BME280;58302;51.446;-2.000;2022-09-01T13:38:25;101005.00;;;21.42;52.64
55301;BME280;58302;51.446;-2.000;2022-09-01T13:40:51;101008.91;;;21.58;51.43
55301;BME280;58302;51.446;-2.000;2022-09-01T13:43:20;101005.19;;;21.71;51.38
55301;BME280;58302;51.446;-2.000;2022-09-01T13:45:47;101004.00;;;21.90;50.39
55301;BME280;58302;51.446;-2.000;2022-09-01T13:48:15;100998.94;;;22.18;49.95
55301;BME280;58302;51.446;-2.000;2022-09-01T13:50:41;100998.09;;;22.26;49.14
55301;BME280;58302;51.446;-2.000;2022-09-01T13:53:08;101002.13;;;22.75;48.24
55301;BME280;58302;51.446;-2.000;2022-09-01T13:55:38;100994.63;;;22.76;47.92